Terminal Aerodrome Forecast
Issued by NWS

Home | Current Version | Previous Version | Text Only | Print | Product List | Glossary On
Versions: 1 2 3 4 5 6 7 8 9 10 11 12 13 14 15
000
FTUS43 KPAH 281120
TAFOWB
TAF
KOWB 281120Z 2812/2912 VRB04KT P6SM SCT008 BKN012
      TEMPO 2812/2814 3SM BR BKN008
     FM281400 25011KT P6SM SCT100
     FM290000 VRB03KT P6SM SKC
     FM290800 VRB03KT P6SM SCT080 BKN150=

USA.gov is the U.S. government's official web portal to all federal, state and local government web resources and services.